createdAt,value
2022-12-25T00:05:48.826Z,61.67
2022-12-25T00:11:51.549Z,61.17
2022-12-25T00:18:03.037Z,67.10
2022-12-25T00:30:26.077Z,27.37
2022-12-25T00:36:34.906Z,22.40
2022-12-25T00:42:40.016Z,17.43
2022-12-25T00:48:42.465Z,13.97
2022-12-25T00:54:45.029Z,12.33
2022-12-25T01:00:59.120Z,12.00
2022-12-25T01:07:01.938Z,9.97
2022-12-25T01:13:05.198Z,9.00
2022-12-25T01:19:09.856Z,9.27
2022-12-25T01:25:14.376Z,9.17
2022-12-25T01:31:20.939Z,6.77
2022-12-25T01:37:29.251Z,4.50
2022-12-25T01:43:35.490Z,4.30
2022-12-25T01:49:41.207Z,3.93
2022-12-25T01:55:47.707Z,4.93
2022-12-25T02:01:50.315Z,4.97
2022-12-25T02:07:53.614Z,5.70
2022-12-25T02:14:04.474Z,4.87
2022-12-25T02:20:22.651Z,3.60
2022-12-25T02:26:50.184Z,3.40
2022-12-25T02:33:41.796Z,3.80
2022-12-25T02:40:00.788Z,2.87
2022-12-25T02:46:33.978Z,2.13
2022-12-25T02:52:55.029Z,2.20
2022-12-25T02:59:18.423Z,1.93
2022-12-25T03:05:44.665Z,2.27
2022-12-25T03:12:01.128Z,2.87
2022-12-25T03:18:07.660Z,3.10
2022-12-25T03:24:31.226Z,3.77
2022-12-25T03:31:01.873Z,3.40
2022-12-25T03:37:37.376Z,4.33
2022-12-25T03:44:23.073Z,4.27
2022-12-25T03:50:57.641Z,3.67
2022-12-25T03:57:29.178Z,3.80
2022-12-25T04:03:50.833Z,4.30
2022-12-25T04:10:11.376Z,4.30
2022-12-25T04:16:32.786Z,4.00
2022-12-25T04:22:53.319Z,4.60
2022-12-25T04:29:16.039Z,4.03
2022-12-25T04:35:37.432Z,4.80
2022-12-25T04:41:42.940Z,5.47
2022-12-25T04:47:44.678Z,5.07
2022-12-25T04:53:50.852Z,4.63
2022-12-25T04:59:59.310Z,3.47
2022-12-25T05:06:08.057Z,2.60
2022-12-25T05:12:15.326Z,2.10
2022-12-25T05:18:23.843Z,2.13
2022-12-25T05:24:28.275Z,1.80
2022-12-25T05:30:30.763Z,2.10
2022-12-25T05:36:33.248Z,2.03
2022-12-25T05:42:36.864Z,2.27
2022-12-25T05:48:39.577Z,3.00
2022-12-25T05:54:41.705Z,2.50
2022-12-25T06:00:45.199Z,3.40
2022-12-25T06:06:50.713Z,3.07
2022-12-25T06:12:53.136Z,4.10
2022-12-25T06:18:55.628Z,5.03
2022-12-25T06:25:01.108Z,4.10
2022-12-25T06:31:13.634Z,4.83
2022-12-25T06:37:17.489Z,4.70
2022-12-25T06:43:21.270Z,5.23
2022-12-25T06:49:24.076Z,4.57
2022-12-25T06:55:26.577Z,8.40
2022-12-25T07:01:58.440Z,6.63
2022-12-25T07:08:02.584Z,7.73
2022-12-25T07:14:04.580Z,7.00
2022-12-25T07:20:07.284Z,8.73
2022-12-25T07:26:11.980Z,6.97
2022-12-25T07:32:14.506Z,6.20
2022-12-25T07:38:19.012Z,7.97
2022-12-25T07:44:26.398Z,8.10
2022-12-25T07:50:31.860Z,9.30
2022-12-25T07:56:34.308Z,9.87
2022-12-25T08:02:37.012Z,9.67
2022-12-25T08:08:41.271Z,12.23
2022-12-25T08:14:43.744Z,10.20
2022-12-25T08:20:46.407Z,12.93
2022-12-25T08:26:52.461Z,10.33
2022-12-25T08:32:56.907Z,9.40
2022-12-25T08:39:03.364Z,10.60
2022-12-25T08:45:07.971Z,11.80
2022-12-25T08:51:15.607Z,10.83
2022-12-25T08:57:27.042Z,13.67
2022-12-25T09:03:36.594Z,11.60
2022-12-25T09:09:41.463Z,12.77
2022-12-25T09:15:43.513Z,12.50
2022-12-25T09:21:45.472Z,12.10
2022-12-25T09:27:52.886Z,12.00
2022-12-25T09:33:58.881Z,12.43
2022-12-25T09:40:01.326Z,10.13
2022-12-25T09:46:08.849Z,9.80
2022-12-25T09:52:39.665Z,9.00
2022-12-25T09:58:44.836Z,9.30
2022-12-25T10:05:28.449Z,6.27
2022-12-25T10:11:45.980Z,6.13
2022-12-25T10:17:54.484Z,4.93
2022-12-25T10:24:21.026Z,5.50
2022-12-25T10:30:30.852Z,5.47
2022-12-25T10:36:35.015Z,5.33
2022-12-25T10:42:49.867Z,5.33
2022-12-25T10:49:02.010Z,4.73
2022-12-25T10:55:28.784Z,4.03
2022-12-25T11:01:37.306Z,4.63
2022-12-25T11:07:55.662Z,3.63
2022-12-25T11:14:05.133Z,3.77
2022-12-25T11:20:17.673Z,4.03
2022-12-25T11:26:26.166Z,4.80
2022-12-25T11:32:56.741Z,4.40
2022-12-25T11:39:15.253Z,4.67
2022-12-25T11:45:32.778Z,2.97
2022-12-25T11:51:39.272Z,3.30
2022-12-25T11:57:47.727Z,3.17
2022-12-25T12:03:55.272Z,2.63
2022-12-25T12:10:22.353Z,3.20
2022-12-25T12:16:25.314Z,3.57
2022-12-25T12:22:29.693Z,3.60
2022-12-25T12:28:47.236Z,3.80
2022-12-25T12:34:54.643Z,5.23
2022-12-25T12:41:10.956Z,4.87
2022-12-25T12:47:37.847Z,4.33
2022-12-25T12:53:43.239Z,4.40
2022-12-25T12:59:48.763Z,5.30
2022-12-25T13:06:04.334Z,5.33
2022-12-25T13:12:08.668Z,4.90
2022-12-25T13:18:17.268Z,13.50
2022-12-25T13:24:25.733Z,3.10
2022-12-25T13:30:42.532Z,2.40
2022-12-25T13:36:44.717Z,2.60
2022-12-25T13:42:48.168Z,3.00
2022-12-25T13:49:01.086Z,3.70
2022-12-25T13:55:13.426Z,3.30
2022-12-25T14:01:16.768Z,2.80
2022-12-25T14:07:25.167Z,3.07
2022-12-25T14:13:31.742Z,3.40
2022-12-25T14:19:35.076Z,3.30
2022-12-25T14:25:46.570Z,3.87
2022-12-25T14:31:49.039Z,3.70
2022-12-25T14:38:00.624Z,3.70
2022-12-25T14:44:06.425Z,5.93
2022-12-25T14:50:16.595Z,8.47
2022-12-25T14:56:21.984Z,8.47
2022-12-25T15:02:25.663Z,5.90
2022-12-25T15:08:31.608Z,6.20
2022-12-25T15:14:37.420Z,5.83
2022-12-25T15:20:39.918Z,5.60
2022-12-25T15:26:46.359Z,6.63
2022-12-25T15:32:48.820Z,5.67
2022-12-25T15:38:54.285Z,6.87
2022-12-25T15:44:57.014Z,8.00
2022-12-25T15:50:58.960Z,9.30
2022-12-25T15:57:03.968Z,7.37
2022-12-25T16:03:05.972Z,7.17
2022-12-25T16:09:07.948Z,8.40
2022-12-25T16:15:13.141Z,7.40
2022-12-25T16:21:20.673Z,7.70
2022-12-25T16:27:23.071Z,7.47
2022-12-25T16:33:25.530Z,5.67
2022-12-25T16:39:29.021Z,4.60
2022-12-25T16:45:31.497Z,7.13
2022-12-25T16:51:35.965Z,5.73
2022-12-25T16:57:38.423Z,5.23
2022-12-25T17:03:40.974Z,7.77
2022-12-25T17:09:44.584Z,7.03
2022-12-25T17:15:50.360Z,5.23
2022-12-25T17:21:55.861Z,5.93
2022-12-25T17:27:57.614Z,4.83
2022-12-25T17:34:02.539Z,4.67
2022-12-25T17:40:05.687Z,5.47
2022-12-25T17:46:20.350Z,5.80
2022-12-25T17:52:25.736Z,6.93
2022-12-25T17:58:28.149Z,6.93
2022-12-25T18:04:33.651Z,6.50
2022-12-25T18:10:41.157Z,7.57
2022-12-25T18:16:48.521Z,8.00
2022-12-25T18:22:51.084Z,8.50
2022-12-25T18:28:56.597Z,10.40
2022-12-25T18:34:59.039Z,9.60
2022-12-25T18:41:06.488Z,14.50
2022-12-25T18:47:08.999Z,19.93
2022-12-25T18:53:11.441Z,10.73
2022-12-25T18:59:16.904Z,11.33
2022-12-25T19:05:18.811Z,11.40
2022-12-25T19:11:24.260Z,10.80
2022-12-25T19:17:31.571Z,10.33
2022-12-25T19:23:34.795Z,10.23
2022-12-25T19:29:37.263Z,8.83
2022-12-25T19:35:41.742Z,10.43
2022-12-25T19:41:47.212Z,21.20
2022-12-25T19:47:49.632Z,39.93
2022-12-25T19:53:54.108Z,25.57
2022-12-25T19:59:57.579Z,18.77
2022-12-25T20:06:00.055Z,17.23
2022-12-25T20:12:03.582Z,23.97
2022-12-25T20:18:06.043Z,19.13
2022-12-25T20:24:10.509Z,14.33
2022-12-25T20:30:12.975Z,10.90
2022-12-25T20:36:15.883Z,10.60
2022-12-25T20:42:20.507Z,36.07
2022-12-25T20:48:22.600Z,33.77
2022-12-25T20:54:24.284Z,58.63
2022-12-25T21:00:26.178Z,43.27
2022-12-25T21:06:28.806Z,37.50
2022-12-25T21:12:31.201Z,27.57
2022-12-25T21:18:35.107Z,27.33
2022-12-25T21:24:37.185Z,22.47
2022-12-25T21:30:39.657Z,23.70
2022-12-25T21:36:42.146Z,21.33
2022-12-25T21:42:47.623Z,23.57
2022-12-25T21:48:50.090Z,21.43
2022-12-25T21:54:53.562Z,13.87
2022-12-25T22:00:55.515Z,18.20
2022-12-25T22:07:16.597Z,15.43
2022-12-25T22:13:41.195Z,15.33
2022-12-25T22:19:49.634Z,21.63
2022-12-25T22:25:52.081Z,19.53
2022-12-25T22:31:54.588Z,19.03
2022-12-25T22:37:58.947Z,17.03
2022-12-25T22:44:18.028Z,18.80
2022-12-25T22:50:21.018Z,21.43
2022-12-25T22:56:26.331Z,20.83
2022-12-25T23:02:29.165Z,14.50
2022-12-25T23:08:32.416Z,16.23
2022-12-25T23:14:45.098Z,14.83
2022-12-25T23:21:05.435Z,16.17
2022-12-25T23:27:07.915Z,20.67
2022-12-25T23:33:10.379Z,25.27
2022-12-25T23:39:12.828Z,16.10
2022-12-25T23:45:14.925Z,18.07
2022-12-25T23:51:18.769Z,22.00
2022-12-25T23:57:21.741Z,16.60
